Flight Track Log - Related Links

Times and Time Zones

All times are in EDT time to prevent confusion due to time zone crossing. See the ASH3770 flight status page for this flight to view local times or setup timezone preferences in your user account.

Time Position Orientation Groundspeed Altitude Reporting Facility
EDT Latitude Longitude Course Direction KTS MPH feet Rate Location/Type
Sun 04:30:19 PM 39.7667 -86.2667 21° North 188 216 4,200  Level Indianapolis TRACON
Sun 04:31:13 PM 39.8117 -86.2447 21° North 185 213 5,900 2,224 Climbing Indianapolis Center
Sun 04:32:00 PM 40.0256 -86.2507 42° Northeast  Level FlightAware Approximate
Sun 04:32:15 PM 39.8800 -86.2203 15° North 240 276 8,500  Level Indianapolis Center
Sun 04:33:00 PM 40.0860 -86.1798 46° Northeast  Level FlightAware Approximate
Sun 04:34:00 PM 40.1429 -86.1040 46° Northeast  Level FlightAware Approximate
Sun 04:34:00 PM 40.0208 -86.1706 15° North 302 348 12,500  Level Chicago Center
Sun 04:35:02 PM 40.1142 -86.1369 15° North 351 404 13,000 979 Climbing Chicago Center
Sun 04:36:21 PM 40.2306 -86.0108 40° Northeast 395 455 14,800 1,403 Climbing Indianapolis Center
Sun 04:37:06 PM 40.2781 -85.9511 44° Northeast 395 455 15,900 1,907 Climbing Chicago Center
Sun 04:38:08 PM 40.3758 -85.8278 44° Northeast 407 468 18,200 1,935 Climbing Chicago Center
Sun 04:39:10 PM 40.4839 -85.7958 13° North 423 487 19,900 871 Climbing Chicago Center
Sun 04:40:12 PM 40.5947 -85.8322 346° North 423 487 20,000 48 Climbing Chicago Center
Sun 04:41:14 PM 40.6622 -85.9561 306° West 423 487 20,000  Level Chicago Center
Sun 04:42:17 PM 40.7369 -86.0894 307° West 413 475 20,000  Level Chicago Center
Sun 04:43:19 PM 40.8042 -86.2092 307° West 407 468 20,000  Level Chicago Center
Sun 04:44:21 PM 40.8753 -86.3294 308° West 411 473 20,000  Level Chicago Center
Sun 04:45:23 PM 40.9444 -86.4511 307° West 414 476 20,000  Level Chicago Center
Sun 04:46:25 PM 41.0144 -86.5742 307° West 416 479 20,000  Level Chicago Center
Sun 04:47:27 PM 41.0986 -86.7225 307° West 418 481 20,000 -339 Level Chicago Center
Sun 04:48:29 PM 41.1717 -86.8511 307° West 415 478 19,300 -1,258 Descending Chicago Center
Sun 04:49:31 PM 41.2386 -86.9700 307° West 410 472 17,400 -1,790 Descending Chicago Center
Sun 04:50:33 PM 41.3019 -87.0817 307° West 387 445 15,600 -1,742 Descending Chicago Center
Sun 04:51:35 PM 41.3639 -87.1903 307° West 374 430 13,800 -1,742 Descending Chicago Center
Sun 04:52:37 PM 41.4372 -87.2789 318° Northwest 361 415 12,000 -1,355 Descending Chicago Center
Sun 04:53:39 PM 41.5247 -87.3833 318° Northwest 356 410 11,000 -484 Descending Chicago Center
Sun 04:54:41 PM 41.5989 -87.4639 321° Northwest 351 404 11,000  Level Chicago Center
Sun 04:55:43 PM 41.6708 -87.5436 320° Northwest 341 392 11,000 -774 Level Chicago Center
Sun 04:56:45 PM 41.7297 -87.6111 319° Northwest 289 333 9,400 -1,790 Descending Chicago Center
Sun 04:57:47 PM 41.8022 -87.6917 320° Northwest 285 328 7,300 -1,161 Descending Chicago Center
Sun 04:58:49 PM 41.8147 -87.7883 280° West 290 334 7,000 -242 Descending Chicago Center
Sun 04:59:51 PM 41.8042 -87.8800 261° West 264 304 6,800 -720 Descending Chicago Center
Sun 05:00:54 PM 41.7800 -87.9650 249° West 260 299 5,500 -1,152 Descending Chicago Center
Sun 05:01:56 PM 41.8119 -88.0378 301° West 240 276 4,400 -1,065 Descending Chicago Center

Login

Don't have an account? Register now (free) for customized features, flight alerts, and more!